Buckhorn, New Mexico
Current Conditions -  °F | °C
As of 11:55 AM on Sunday 23 Nov 2014 (Local Time) from KSVC Reporting Station
Clear Clear  
Wind Chill: 12°   Ceiling: Unl
Heat Index: 12°   Visibility: 10mi
Dew Point: -4°   Wind: 26mph
Humidity: 33%   Direction: 300°WNW
Pressure: 29.96"   Gusts: 35mph
Location:  33.03°N, 108.71°W
Report Text: KSVC 231855Z AUTO 30023G30KT 10SM CLR 12/M04 A2996 RMK AO2
Loading
Personal Weather Stations






























Interactive Weather Map New forecast layout! Learn more

10-Day Weather Forecast

Advertisements
Track Severe Weather on mobile